sensor_id;sensor_type;location;lat;lon;timestamp;P1;durP1;ratioP1;P2;durP2;ratioP2
1350;SDS011;669;50.206;9.998;2024-03-23T00:53:25;4.87;;;4.40;;
1350;SDS011;669;50.206;9.998;2024-03-23T00:55:52;6.93;;;4.43;;
1350;SDS011;669;50.206;9.998;2024-03-23T00:58:18;4.37;;;3.90;;
1350;SDS011;669;50.206;9.998;2024-03-23T01:00:45;4.07;;;3.67;;
1350;SDS011;669;50.206;9.998;2024-03-23T01:03:11;4.50;;;4.10;;
1350;SDS011;669;50.206;9.998;2024-03-23T01:05:38;4.77;;;4.37;;
1350;SDS011;669;50.206;9.998;2024-03-23T01:08:05;4.73;;;4.30;;
1350;SDS011;669;50.206;9.998;2024-03-23T01:10:33;5.33;;;4.83;;
1350;SDS011;669;50.206;9.998;2024-03-23T01:12:59;6.60;;;5.07;;
1350;SDS011;669;50.206;9.998;2024-03-23T01:15:26;6.23;;;5.10;;
1350;SDS011;669;50.206;9.998;2024-03-23T01:17:53;5.53;;;4.93;;
1350;SDS011;669;50.206;9.998;2024-03-23T01:20:20;5.87;;;5.10;;
1350;SDS011;669;50.206;9.998;2024-03-23T01:22:46;6.40;;;5.80;;
1350;SDS011;669;50.206;9.998;2024-03-23T01:25:13;4.27;;;3.90;;
1350;SDS011;669;50.206;9.998;2024-03-23T01:27:40;6.33;;;5.13;;
1350;SDS011;669;50.206;9.998;2024-03-23T01:30:07;5.87;;;5.33;;
1350;SDS011;669;50.206;9.998;2024-03-23T01:32:33;7.43;;;5.30;;
1350;SDS011;669;50.206;9.998;2024-03-23T01:35:00;6.20;;;5.70;;
1350;SDS011;669;50.206;9.998;2024-03-23T01:37:26;6.03;;;5.43;;
1350;SDS011;669;50.206;9.998;2024-03-23T01:39:53;4.83;;;4.43;;
1350;SDS011;669;50.206;9.998;2024-03-23T01:42:19;6.07;;;5.57;;
1350;SDS011;669;50.206;9.998;2024-03-23T01:44:47;4.97;;;4.47;;
1350;SDS011;669;50.206;9.998;2024-03-23T01:47:13;4.90;;;4.40;;
1350;SDS011;669;50.206;9.998;2024-03-23T01:49:41;8.93;;;6.07;;
1350;SDS011;669;50.206;9.998;2024-03-23T01:52:07;5.00;;;4.57;;
1350;SDS011;669;50.206;9.998;2024-03-23T01:54:34;5.10;;;4.60;;
1350;SDS011;669;50.206;9.998;2024-03-23T01:57:00;4.47;;;4.07;;
1350;SDS011;669;50.206;9.998;2024-03-23T01:59:27;5.57;;;5.07;;
1350;SDS011;669;50.206;9.998;2024-03-23T02:01:55;7.13;;;5.97;;
1350;SDS011;669;50.206;9.998;2024-03-23T02:04:22;6.00;;;5.27;;
1350;SDS011;669;50.206;9.998;2024-03-23T02:06:48;4.97;;;4.57;;
1350;SDS011;669;50.206;9.998;2024-03-23T02:09:15;5.13;;;4.70;;
1350;SDS011;669;50.206;9.998;2024-03-23T02:11:41;4.87;;;4.40;;
1350;SDS011;669;50.206;9.998;2024-03-23T02:14:08;8.40;;;5.70;;
1350;SDS011;669;50.206;9.998;2024-03-23T02:16:34;4.93;;;3.97;;
1350;SDS011;669;50.206;9.998;2024-03-23T02:19:02;6.73;;;5.10;;
1350;SDS011;669;50.206;9.998;2024-03-23T02:21:28;6.30;;;4.60;;
1350;SDS011;669;50.206;9.998;2024-03-23T02:23:59;4.53;;;4.13;;
1350;SDS011;669;50.206;9.998;2024-03-23T02:26:25;5.33;;;4.80;;
1350;SDS011;669;50.206;9.998;2024-03-23T02:28:52;6.80;;;5.80;;
1350;SDS011;669;50.206;9.998;2024-03-23T02:31:18;5.63;;;4.97;;
1350;SDS011;669;50.206;9.998;2024-03-23T02:33:45;6.87;;;5.93;;
1350;SDS011;669;50.206;9.998;2024-03-23T02:36:11;6.60;;;4.93;;
1350;SDS011;669;50.206;9.998;2024-03-23T02:38:38;5.70;;;5.20;;
1350;SDS011;669;50.206;9.998;2024-03-23T02:41:05;6.00;;;5.40;;
1350;SDS011;669;50.206;9.998;2024-03-23T02:43:32;7.07;;;5.83;;
1350;SDS011;669;50.206;9.998;2024-03-23T02:45:58;4.53;;;4.13;;
1350;SDS011;669;50.206;9.998;2024-03-23T02:48:26;8.00;;;5.70;;
1350;SDS011;669;50.206;9.998;2024-03-23T02:50:52;4.73;;;4.30;;
1350;SDS011;669;50.206;9.998;2024-03-23T02:53:19;5.27;;;4.77;;
1350;SDS011;669;50.206;9.998;2024-03-23T02:55:45;4.87;;;4.40;;
1350;SDS011;669;50.206;9.998;2024-03-23T02:58:13;9.00;;;6.63;;
1350;SDS011;669;50.206;9.998;2024-03-23T03:00:39;6.23;;;5.63;;
1350;SDS011;669;50.206;9.998;2024-03-23T03:03:07;8.80;;;7.17;;
1350;SDS011;669;50.206;9.998;2024-03-23T03:05:34;8.90;;;8.03;;
1350;SDS011;669;50.206;9.998;2024-03-23T03:08:01;7.53;;;6.30;;
1350;SDS011;669;50.206;9.998;2024-03-23T03:10:27;7.07;;;6.20;;
1350;SDS011;669;50.206;9.998;2024-03-23T03:12:54;7.77;;;6.40;;
1350;SDS011;669;50.206;9.998;2024-03-23T03:15:21;7.20;;;6.50;;
1350;SDS011;669;50.206;9.998;2024-03-23T03:17:48;5.63;;;5.10;;
1350;SDS011;669;50.206;9.998;2024-03-23T03:20:14;6.27;;;5.67;;
1350;SDS011;669;50.206;9.998;2024-03-23T03:22:43;5.70;;;4.87;;
1350;SDS011;669;50.206;9.998;2024-03-23T03:25:09;6.00;;;5.50;;
1350;SDS011;669;50.206;9.998;2024-03-23T03:27:36;5.30;;;4.80;;
1350;SDS011;669;50.206;9.998;2024-03-23T03:30:02;5.37;;;4.87;;
1350;SDS011;669;50.206;9.998;2024-03-23T03:32:33;6.40;;;5.37;;
1350;SDS011;669;50.206;9.998;2024-03-23T03:34:59;5.93;;;5.40;;
1350;SDS011;669;50.206;9.998;2024-03-23T03:37:26;5.20;;;4.70;;
1350;SDS011;669;50.206;9.998;2024-03-23T03:39:52;5.80;;;5.30;;
1350;SDS011;669;50.206;9.998;2024-03-23T03:42:19;6.20;;;5.10;;
1350;SDS011;669;50.206;9.998;2024-03-23T03:44:45;6.10;;;5.50;;
1350;SDS011;669;50.206;9.998;2024-03-23T03:47:12;5.10;;;4.70;;
1350;SDS011;669;50.206;9.998;2024-03-23T03:49:39;5.93;;;5.07;;
1350;SDS011;669;50.206;9.998;2024-03-23T03:52:06;6.43;;;5.83;;
1350;SDS011;669;50.206;9.998;2024-03-23T03:54:32;5.90;;;5.40;;
1350;SDS011;669;50.206;9.998;2024-03-23T03:56:59;8.70;;;6.90;;
1350;SDS011;669;50.206;9.998;2024-03-23T03:59:25;8.80;;;7.00;;
1350;SDS011;669;50.206;9.998;2024-03-23T04:01:52;6.00;;;5.00;;
1350;SDS011;669;50.206;9.998;2024-03-23T04:04:18;6.20;;;5.63;;
1350;SDS011;669;50.206;9.998;2024-03-23T04:06:47;7.23;;;5.63;;
1350;SDS011;669;50.206;9.998;2024-03-23T04:09:13;6.13;;;5.53;;
1350;SDS011;669;50.206;9.998;2024-03-23T04:11:40;5.83;;;5.33;;
1350;SDS011;669;50.206;9.998;2024-03-23T04:14:07;5.57;;;4.97;;
1350;SDS011;669;50.206;9.998;2024-03-23T04:16:34;5.10;;;4.70;;
1350;SDS011;669;50.206;9.998;2024-03-23T04:19:01;4.87;;;4.47;;
1350;SDS011;669;50.206;9.998;2024-03-23T04:21:27;5.80;;;5.20;;
1350;SDS011;669;50.206;9.998;2024-03-23T04:23:55;5.80;;;5.20;;
1350;SDS011;669;50.206;9.998;2024-03-23T04:26:21;6.20;;;5.60;;
1350;SDS011;669;50.206;9.998;2024-03-23T04:28:48;5.30;;;4.80;;
1350;SDS011;669;50.206;9.998;2024-03-23T04:31:14;5.43;;;4.93;;
1350;SDS011;669;50.206;9.998;2024-03-23T04:33:41;5.13;;;4.67;;
1350;SDS011;669;50.206;9.998;2024-03-23T04:36:07;5.23;;;4.40;;
1350;SDS011;669;50.206;9.998;2024-03-23T04:38:35;6.03;;;5.43;;
1350;SDS011;669;50.206;9.998;2024-03-23T04:41:03;4.80;;;4.40;;
1350;SDS011;669;50.206;9.998;2024-03-23T04:43:30;5.63;;;5.13;;
1350;SDS011;669;50.206;9.998;2024-03-23T04:45:57;6.23;;;4.43;;
1350;SDS011;669;50.206;9.998;2024-03-23T04:48:24;4.57;;;4.17;;
1350;SDS011;669;50.206;9.998;2024-03-23T04:50:54;5.17;;;4.67;;
1350;SDS011;669;50.206;9.998;2024-03-23T04:53:22;5.80;;;5.13;;
1350;SDS011;669;50.206;9.998;2024-03-23T04:55:53;5.20;;;4.73;;
1350;SDS011;669;50.206;9.998;2024-03-23T04:58:21;4.63;;;4.30;;
1350;SDS011;669;50.206;9.998;2024-03-23T05:00:52;6.50;;;5.50;;
1350;SDS011;669;50.206;9.998;2024-03-23T05:03:20;5.60;;;5.07;;
1350;SDS011;669;50.206;9.998;2024-03-23T05:05:46;5.50;;;5.00;;
1350;SDS011;669;50.206;9.998;2024-03-23T05:08:13;5.90;;;5.30;;
1350;SDS011;669;50.206;9.998;2024-03-23T05:10:40;7.23;;;6.20;;
1350;SDS011;669;50.206;9.998;2024-03-23T05:13:07;6.57;;;5.37;;
1350;SDS011;669;50.206;9.998;2024-03-23T05:15:35;5.70;;;5.10;;
1350;SDS011;669;50.206;9.998;2024-03-23T05:18:02;5.50;;;5.00;;
1350;SDS011;669;50.206;9.998;2024-03-23T05:20:28;4.43;;;4.03;;
1350;SDS011;669;50.206;9.998;2024-03-23T05:22:55;4.30;;;3.90;;
1350;SDS011;669;50.206;9.998;2024-03-23T05:25:21;5.80;;;5.20;;
1350;SDS011;669;50.206;9.998;2024-03-23T05:27:48;5.70;;;5.20;;
1350;SDS011;669;50.206;9.998;2024-03-23T05:30:15;8.57;;;7.77;;
1350;SDS011;669;50.206;9.998;2024-03-23T05:32:43;16.70;;;11.83;;
1350;SDS011;669;50.206;9.998;2024-03-23T05:35:10;13.13;;;11.17;;
1350;SDS011;669;50.206;9.998;2024-03-23T05:37:37;15.10;;;11.20;;
1350;SDS011;669;50.206;9.998;2024-03-23T05:40:03;21.60;;;13.27;;
1350;SDS011;669;50.206;9.998;2024-03-23T05:42:30;18.23;;;14.90;;
1350;SDS011;669;50.206;9.998;2024-03-23T05:44:57;19.53;;;15.83;;
1350;SDS011;669;50.206;9.998;2024-03-23T05:47:23;15.93;;;12.77;;
1350;SDS011;669;50.206;9.998;2024-03-23T05:49:51;16.30;;;12.30;;
1350;SDS011;669;50.206;9.998;2024-03-23T05:52:18;16.00;;;11.57;;
1350;SDS011;669;50.206;9.998;2024-03-23T05:54:46;13.57;;;11.00;;
1350;SDS011;669;50.206;9.998;2024-03-23T05:57:13;13.23;;;11.27;;
1350;SDS011;669;50.206;9.998;2024-03-23T05:59:39;17.87;;;13.37;;
1350;SDS011;669;50.206;9.998;2024-03-23T06:02:06;21.47;;;15.70;;
1350;SDS011;669;50.206;9.998;2024-03-23T06:04:32;25.73;;;16.27;;
1350;SDS011;669;50.206;9.998;2024-03-23T06:07:00;18.97;;;15.97;;
1350;SDS011;669;50.206;9.998;2024-03-23T06:09:27;21.17;;;16.80;;
1350;SDS011;669;50.206;9.998;2024-03-23T06:11:56;26.67;;;19.47;;
1350;SDS011;669;50.206;9.998;2024-03-23T06:14:22;24.67;;;18.00;;
1350;SDS011;669;50.206;9.998;2024-03-23T06:16:49;24.37;;;16.77;;
1350;SDS011;669;50.206;9.998;2024-03-23T06:19:15;20.73;;;15.53;;
1350;SDS011;669;50.206;9.998;2024-03-23T06:21:43;20.57;;;14.37;;
1350;SDS011;669;50.206;9.998;2024-03-23T06:24:10;13.07;;;10.17;;
1350;SDS011;669;50.206;9.998;2024-03-23T06:26:37;13.67;;;11.10;;
1350;SDS011;669;50.206;9.998;2024-03-23T06:29:03;15.73;;;9.30;;
1350;SDS011;669;50.206;9.998;2024-03-23T06:31:31;13.43;;;9.10;;
1350;SDS011;669;50.206;9.998;2024-03-23T06:33:57;12.33;;;9.57;;
1350;SDS011;669;50.206;9.998;2024-03-23T06:36:24;9.70;;;7.87;;
1350;SDS011;669;50.206;9.998;2024-03-23T06:38:50;10.10;;;8.20;;
1350;SDS011;669;50.206;9.998;2024-03-23T06:41:19;8.97;;;7.70;;
1350;SDS011;669;50.206;9.998;2024-03-23T06:43:45;13.40;;;7.77;;
1350;SDS011;669;50.206;9.998;2024-03-23T06:46:12;11.90;;;7.10;;
1350;SDS011;669;50.206;9.998;2024-03-23T06:48:38;9.97;;;7.50;;
1350;SDS011;669;50.206;9.998;2024-03-23T06:51:05;10.17;;;8.73;;
1350;SDS011;669;50.206;9.998;2024-03-23T06:53:31;7.37;;;5.47;;
1350;SDS011;669;50.206;9.998;2024-03-23T06:55:58;8.27;;;5.77;;
1350;SDS011;669;50.206;9.998;2024-03-23T06:58:27;6.13;;;4.07;;
1350;SDS011;669;50.206;9.998;2024-03-23T07:00:54;3.90;;;2.97;;
1350;SDS011;669;50.206;9.998;2024-03-23T07:03:20;3.07;;;2.70;;
1350;SDS011;669;50.206;9.998;2024-03-23T07:05:48;1.60;;;1.43;;
1350;SDS011;669;50.206;9.998;2024-03-23T07:08:14;1.47;;;1.27;;
1350;SDS011;669;50.206;9.998;2024-03-23T07:10:46;0.97;;;0.97;;
1350;SDS011;669;50.206;9.998;2024-03-23T07:13:12;1.63;;;1.53;;
1350;SDS011;669;50.206;9.998;2024-03-23T07:15:40;0.93;;;0.93;;
1350;SDS011;669;50.206;9.998;2024-03-23T07:18:06;0.93;;;0.93;;
1350;SDS011;669;50.206;9.998;2024-03-23T07:20:33;0.70;;;0.70;;
1350;SDS011;669;50.206;9.998;2024-03-23T07:22:59;0.40;;;0.33;;
1350;SDS011;669;50.206;9.998;2024-03-23T07:25:26;0.43;;;0.43;;
1350;SDS011;669;50.206;9.998;2024-03-23T07:27:54;1.57;;;1.10;;
1350;SDS011;669;50.206;9.998;2024-03-23T07:30:21;1.13;;;0.27;;
1350;SDS011;669;50.206;9.998;2024-03-23T07:32:48;0.60;;;0.40;;
1350;SDS011;669;50.206;9.998;2024-03-23T07:35:15;0.37;;;0.37;;
1350;SDS011;669;50.206;9.998;2024-03-23T07:37:41;0.90;;;0.53;;
1350;SDS011;669;50.206;9.998;2024-03-23T07:40:09;0.40;;;0.40;;
1350;SDS011;669;50.206;9.998;2024-03-23T07:42:37;1.17;;;0.50;;
1350;SDS011;669;50.206;9.998;2024-03-23T07:45:04;0.30;;;0.30;;
1350;SDS011;669;50.206;9.998;2024-03-23T07:47:31;0.57;;;0.30;;
1350;SDS011;669;50.206;9.998;2024-03-23T07:50:00;0.70;;;0.60;;
1350;SDS011;669;50.206;9.998;2024-03-23T07:52:27;0.30;;;0.30;;
1350;SDS011;669;50.206;9.998;2024-03-23T07:54:54;0.57;;;0.57;;
1350;SDS011;669;50.206;9.998;2024-03-23T07:57:20;0.50;;;0.33;;
1350;SDS011;669;50.206;9.998;2024-03-23T07:59:47;0.53;;;0.53;;
1350;SDS011;669;50.206;9.998;2024-03-23T08:02:13;0.60;;;0.60;;
1350;SDS011;669;50.206;9.998;2024-03-23T08:04:40;2.17;;;1.97;;
1350;SDS011;669;50.206;9.998;2024-03-23T08:07:08;1.17;;;1.17;;
1350;SDS011;669;50.206;9.998;2024-03-23T08:09:35;5.13;;;4.63;;
1350;SDS011;669;50.206;9.998;2024-03-23T08:12:00;5.03;;;4.07;;
1350;SDS011;669;50.206;9.998;2024-03-23T08:14:28;1.93;;;1.83;;
1350;SDS011;669;50.206;9.998;2024-03-23T08:16:54;1.40;;;1.30;;
1350;SDS011;669;50.206;9.998;2024-03-23T08:19:21;0.73;;;0.73;;
1350;SDS011;669;50.206;9.998;2024-03-23T08:21:47;1.40;;;1.07;;
1350;SDS011;669;50.206;9.998;2024-03-23T08:24:17;0.60;;;0.60;;
1350;SDS011;669;50.206;9.998;2024-03-23T08:26:43;0.97;;;0.70;;
1350;SDS011;669;50.206;9.998;2024-03-23T08:29:09;1.00;;;0.80;;
1350;SDS011;669;50.206;9.998;2024-03-23T08:31:35;1.20;;;0.80;;
1350;SDS011;669;50.206;9.998;2024-03-23T08:34:02;1.67;;;1.20;;
1350;SDS011;669;50.206;9.998;2024-03-23T08:36:28;1.10;;;1.00;;
1350;SDS011;669;50.206;9.998;2024-03-23T08:38:56;1.60;;;1.50;;
1350;SDS011;669;50.206;9.998;2024-03-23T08:41:23;1.67;;;1.57;;
1350;SDS011;669;50.206;9.998;2024-03-23T08:43:50;1.33;;;1.23;;
1350;SDS011;669;50.206;9.998;2024-03-23T08:46:17;1.50;;;1.40;;
1350;SDS011;669;50.206;9.998;2024-03-23T08:48:44;1.03;;;0.97;;
1350;SDS011;669;50.206;9.998;2024-03-23T08:51:12;2.07;;;1.30;;
1350;SDS011;669;50.206;9.998;2024-03-23T08:53:40;2.10;;;1.23;;
1350;SDS011;669;50.206;9.998;2024-03-23T08:56:07;1.77;;;1.47;;
1350;SDS011;669;50.206;9.998;2024-03-23T08:58:36;1.67;;;1.57;;
1350;SDS011;669;50.206;9.998;2024-03-23T09:01:04;1.63;;;1.53;;
1350;SDS011;669;50.206;9.998;2024-03-23T09:03:32;2.00;;;1.50;;
1350;SDS011;669;50.206;9.998;2024-03-23T09:05:59;5.13;;;1.30;;
1350;SDS011;669;50.206;9.998;2024-03-23T09:08:26;4.87;;;1.40;;
1350;SDS011;669;50.206;9.998;2024-03-23T09:10:52;1.33;;;1.20;;
1350;SDS011;669;50.206;9.998;2024-03-23T09:13:20;5.43;;;1.40;;
1350;SDS011;669;50.206;9.998;2024-03-23T09:15:48;6.93;;;1.67;;
1350;SDS011;669;50.206;9.998;2024-03-23T09:18:15;4.80;;;1.90;;
1350;SDS011;669;50.206;9.998;2024-03-23T09:20:42;3.57;;;1.60;;
1350;SDS011;669;50.206;9.998;2024-03-23T09:23:09;2.70;;;1.30;;
1350;SDS011;669;50.206;9.998;2024-03-23T09:25:38;2.30;;;1.47;;
1350;SDS011;669;50.206;9.998;2024-03-23T09:28:06;1.50;;;1.40;;
1350;SDS011;669;50.206;9.998;2024-03-23T09:30:34;4.40;;;2.20;;
1350;SDS011;669;50.206;9.998;2024-03-23T09:33:08;4.37;;;1.87;;
1350;SDS011;669;50.206;9.998;2024-03-23T09:35:36;4.67;;;2.30;;
1350;SDS011;669;50.206;9.998;2024-03-23T09:38:03;4.40;;;1.30;;
1350;SDS011;669;50.206;9.998;2024-03-23T09:40:30;3.90;;;2.17;;
1350;SDS011;669;50.206;9.998;2024-03-23T09:42:58;2.87;;;2.10;;
1350;SDS011;669;50.206;9.998;2024-03-23T09:45:26;4.30;;;1.30;;
1350;SDS011;669;50.206;9.998;2024-03-23T09:47:54;8.47;;;2.17;;
1350;SDS011;669;50.206;9.998;2024-03-23T09:50:22;3.60;;;1.73;;
1350;SDS011;669;50.206;9.998;2024-03-23T09:52:49;1.53;;;1.43;;
1350;SDS011;669;50.206;9.998;2024-03-23T09:55:15;5.23;;;1.93;;
1350;SDS011;669;50.206;9.998;2024-03-23T09:57:42;3.20;;;1.73;;
1350;SDS011;669;50.206;9.998;2024-03-23T10:00:09;2.47;;;1.63;;
1350;SDS011;669;50.206;9.998;2024-03-23T10:02:38;4.70;;;2.23;;
1350;SDS011;669;50.206;9.998;2024-03-23T10:05:04;8.53;;;2.50;;
1350;SDS011;669;50.206;9.998;2024-03-23T10:07:48;4.60;;;1.40;;
1350;SDS011;669;50.206;9.998;2024-03-23T10:10:15;4.17;;;2.20;;
1350;SDS011;669;50.206;9.998;2024-03-23T10:12:46;3.70;;;1.73;;
1350;SDS011;669;50.206;9.998;2024-03-23T10:15:20;7.40;;;3.60;;
1350;SDS011;669;50.206;9.998;2024-03-23T10:17:48;6.93;;;3.00;;
1350;SDS011;669;50.206;9.998;2024-03-23T10:20:17;5.30;;;3.57;;
1350;SDS011;669;50.206;9.998;2024-03-23T10:22:48;7.57;;;3.57;;
1350;SDS011;669;50.206;9.998;2024-03-23T10:25:15;5.23;;;3.83;;
1350;SDS011;669;50.206;9.998;2024-03-23T10:27:42;7.00;;;3.90;;
1350;SDS011;669;50.206;9.998;2024-03-23T10:30:09;6.33;;;3.60;;
1350;SDS011;669;50.206;9.998;2024-03-23T10:32:37;6.50;;;3.30;;
1350;SDS011;669;50.206;9.998;2024-03-23T10:35:16;7.80;;;3.90;;
1350;SDS011;669;50.206;9.998;2024-03-23T10:37:45;3.47;;;2.40;;
1350;SDS011;669;50.206;9.998;2024-03-23T10:40:16;5.43;;;2.63;;
1350;SDS011;669;50.206;9.998;2024-03-23T10:42:44;2.70;;;2.50;;
1350;SDS011;669;50.206;9.998;2024-03-23T10:45:10;5.20;;;2.70;;
1350;SDS011;669;50.206;9.998;2024-03-23T10:47:37;6.20;;;2.57;;
1350;SDS011;669;50.206;9.998;2024-03-23T10:50:04;5.60;;;2.47;;
1350;SDS011;669;50.206;9.998;2024-03-23T10:52:32;3.97;;;2.87;;
1350;SDS011;669;50.206;9.998;2024-03-23T10:54:59;7.20;;;2.67;;
1350;SDS011;669;50.206;9.998;2024-03-23T10:57:32;6.63;;;2.80;;
1350;SDS011;669;50.206;9.998;2024-03-23T11:00:03;7.10;;;2.90;;
1350;SDS011;669;50.206;9.998;2024-03-23T11:02:31;4.53;;;2.30;;
1350;SDS011;669;50.206;9.998;2024-03-23T11:04:57;4.30;;;2.20;;
1350;SDS011;669;50.206;9.998;2024-03-23T11:07:28;9.37;;;2.63;;
1350;SDS011;669;50.206;9.998;2024-03-23T11:09:55;3.00;;;2.03;;
1350;SDS011;669;50.206;9.998;2024-03-23T11:12:27;7.07;;;2.13;;
1350;SDS011;669;50.206;9.998;2024-03-23T11:15:00;3.23;;;2.80;;
1350;SDS011;669;50.206;9.998;2024-03-23T11:17:30;5.20;;;2.67;;
1350;SDS011;669;50.206;9.998;2024-03-23T11:19:56;4.10;;;2.33;;
1350;SDS011;669;50.206;9.998;2024-03-23T11:22:40;3.10;;;1.90;;
1350;SDS011;669;50.206;9.998;2024-03-23T11:25:14;7.67;;;2.67;;
1350;SDS011;669;50.206;9.998;2024-03-23T11:27:47;3.17;;;2.20;;
1350;SDS011;669;50.206;9.998;2024-03-23T11:30:15;4.93;;;2.23;;
1350;SDS011;669;50.206;9.998;2024-03-23T11:32:44;2.80;;;1.60;;
1350;SDS011;669;50.206;9.998;2024-03-23T11:35:10;3.97;;;2.10;;
1350;SDS011;669;50.206;9.998;2024-03-23T11:38:00;5.20;;;2.00;;
1350;SDS011;669;50.206;9.998;2024-03-23T11:40:31;2.80;;;1.70;;
1350;SDS011;669;50.206;9.998;2024-03-23T11:43:00;2.93;;;1.80;;
1350;SDS011;669;50.206;9.998;2024-03-23T11:45:28;4.27;;;1.83;;
1350;SDS011;669;50.206;9.998;2024-03-23T11:48:02;3.00;;;1.33;;
1350;SDS011;669;50.206;9.998;2024-03-23T11:50:29;4.90;;;1.67;;
1350;SDS011;669;50.206;9.998;2024-03-23T11:53:06;5.50;;;1.97;;
1350;SDS011;669;50.206;9.998;2024-03-23T11:55:38;4.13;;;1.40;;
1350;SDS011;669;50.206;9.998;2024-03-23T11:58:08;3.50;;;2.80;;
1350;SDS011;669;50.206;9.998;2024-03-23T12:00:34;6.50;;;2.40;;
1350;SDS011;669;50.206;9.998;2024-03-23T12:03:01;4.00;;;1.50;;
1350;SDS011;669;50.206;9.998;2024-03-23T12:05:27;3.20;;;1.80;;
1350;SDS011;669;50.206;9.998;2024-03-23T12:07:54;5.50;;;2.30;;
1350;SDS011;669;50.206;9.998;2024-03-23T12:10:21;1.60;;;1.50;;
1350;SDS011;669;50.206;9.998;2024-03-23T12:12:58;6.50;;;2.47;;
1350;SDS011;669;50.206;9.998;2024-03-23T12:15:27;9.97;;;5.00;;
1350;SDS011;669;50.206;9.998;2024-03-23T12:18:05;5.90;;;3.50;;
1350;SDS011;669;50.206;9.998;2024-03-23T12:20:32;2.97;;;2.50;;
1350;SDS011;669;50.206;9.998;2024-03-23T12:23:09;11.30;;;3.73;;
1350;SDS011;669;50.206;9.998;2024-03-23T12:25:37;7.20;;;2.90;;
1350;SDS011;669;50.206;9.998;2024-03-23T12:28:04;10.50;;;3.27;;
1350;SDS011;669;50.206;9.998;2024-03-23T12:30:33;7.73;;;2.93;;
1350;SDS011;669;50.206;9.998;2024-03-23T12:33:01;6.00;;;3.00;;
1350;SDS011;669;50.206;9.998;2024-03-23T12:35:29;4.40;;;2.30;;
1350;SDS011;669;50.206;9.998;2024-03-23T12:37:55;6.13;;;1.80;;
1350;SDS011;669;50.206;9.998;2024-03-23T12:40:22;4.17;;;2.10;;
1350;SDS011;669;50.206;9.998;2024-03-23T12:42:48;4.83;;;2.50;;
1350;SDS011;669;50.206;9.998;2024-03-23T12:45:15;5.40;;;3.17;;
1350;SDS011;669;50.206;9.998;2024-03-23T12:47:43;5.40;;;4.00;;
1350;SDS011;669;50.206;9.998;2024-03-23T12:50:10;4.07;;;2.17;;
1350;SDS011;669;50.206;9.998;2024-03-23T12:52:36;4.43;;;1.60;;
1350;SDS011;669;50.206;9.998;2024-03-23T12:55:04;2.87;;;1.53;;
1350;SDS011;669;50.206;9.998;2024-03-23T12:57:31;5.03;;;3.27;;
1350;SDS011;669;50.206;9.998;2024-03-23T12:59:58;4.00;;;1.93;;
1350;SDS011;669;50.206;9.998;2024-03-23T13:02:25;2.03;;;1.90;;
1350;SDS011;669;50.206;9.998;2024-03-23T13:04:54;3.57;;;1.57;;
1350;SDS011;669;50.206;9.998;2024-03-23T13:07:21;4.27;;;1.63;;
1350;SDS011;669;50.206;9.998;2024-03-23T13:09:50;6.03;;;1.90;;
1350;SDS011;669;50.206;9.998;2024-03-23T13:12:16;4.00;;;2.17;;
1350;SDS011;669;50.206;9.998;2024-03-23T13:14:44;3.90;;;1.97;;
1350;SDS011;669;50.206;9.998;2024-03-23T13:17:10;1.50;;;1.40;;
1350;SDS011;669;50.206;9.998;2024-03-23T13:19:37;3.80;;;1.70;;
1350;SDS011;669;50.206;9.998;2024-03-23T13:22:05;3.97;;;1.10;;
1350;SDS011;669;50.206;9.998;2024-03-23T13:24:32;2.20;;;1.50;;
1350;SDS011;669;50.206;9.998;2024-03-23T13:26:58;2.07;;;1.73;;
1350;SDS011;669;50.206;9.998;2024-03-23T13:29:25;3.60;;;1.70;;
1350;SDS011;669;50.206;9.998;2024-03-23T13:31:51;2.77;;;1.90;;
1350;SDS011;669;50.206;9.998;2024-03-23T13:34:18;1.63;;;1.37;;
1350;SDS011;669;50.206;9.998;2024-03-23T13:36:45;2.70;;;1.57;;
1350;SDS011;669;50.206;9.998;2024-03-23T13:39:14;2.97;;;1.60;;
1350;SDS011;669;50.206;9.998;2024-03-23T13:41:41;3.60;;;1.20;;
1350;SDS011;669;50.206;9.998;2024-03-23T13:44:09;1.97;;;1.20;;
1350;SDS011;669;50.206;9.998;2024-03-23T13:46:36;3.20;;;1.27;;
1350;SDS011;669;50.206;9.998;2024-03-23T13:49:03;1.33;;;1.20;;
1350;SDS011;669;50.206;9.998;2024-03-23T13:51:29;6.93;;;2.13;;
1350;SDS011;669;50.206;9.998;2024-03-23T13:53:57;3.90;;;1.10;;
1350;SDS011;669;50.206;9.998;2024-03-23T13:56:27;2.83;;;1.50;;
1350;SDS011;669;50.206;9.998;2024-03-23T13:58:55;2.40;;;1.10;;
1350;SDS011;669;50.206;9.998;2024-03-23T14:01:21;1.20;;;1.10;;
1350;SDS011;669;50.206;9.998;2024-03-23T14:03:49;7.17;;;2.10;;
1350;SDS011;669;50.206;9.998;2024-03-23T14:06:15;1.57;;;1.13;;
1350;SDS011;669;50.206;9.998;2024-03-23T14:08:42;4.00;;;1.20;;
1350;SDS011;669;50.206;9.998;2024-03-23T14:11:08;0.70;;;0.70;;
1350;SDS011;669;50.206;9.998;2024-03-23T14:13:37;1.50;;;1.27;;
1350;SDS011;669;50.206;9.998;2024-03-23T14:16:04;4.03;;;1.90;;
1350;SDS011;669;50.206;9.998;2024-03-23T14:18:31;4.90;;;1.70;;
1350;SDS011;669;50.206;9.998;2024-03-23T14:20:57;4.60;;;1.07;;
1350;SDS011;669;50.206;9.998;2024-03-23T14:23:26;1.03;;;1.00;;
1350;SDS011;669;50.206;9.998;2024-03-23T14:25:52;4.20;;;1.47;;
1350;SDS011;669;50.206;9.998;2024-03-23T14:28:20;2.37;;;1.10;;
1350;SDS011;669;50.206;9.998;2024-03-23T14:30:48;1.90;;;1.37;;
1350;SDS011;669;50.206;9.998;2024-03-23T14:33:16;3.97;;;1.17;;
1350;SDS011;669;50.206;9.998;2024-03-23T14:35:42;1.20;;;0.90;;
1350;SDS011;669;50.206;9.998;2024-03-23T14:38:09;1.60;;;1.30;;
1350;SDS011;669;50.206;9.998;2024-03-23T14:40:35;2.27;;;1.53;;
1350;SDS011;669;50.206;9.998;2024-03-23T14:43:02;1.37;;;1.27;;
1350;SDS011;669;50.206;9.998;2024-03-23T14:45:28;1.37;;;1.20;;
1350;SDS011;669;50.206;9.998;2024-03-23T14:47:56;0.77;;;0.77;;
1350;SDS011;669;50.206;9.998;2024-03-23T14:50:24;1.63;;;1.10;;
1350;SDS011;669;50.206;9.998;2024-03-23T14:52:51;1.00;;;1.00;;
1350;SDS011;669;50.206;9.998;2024-03-23T14:55:17;2.30;;;1.60;;
1350;SDS011;669;50.206;9.998;2024-03-23T14:57:44;1.53;;;1.43;;
1350;SDS011;669;50.206;9.998;2024-03-23T15:00:11;1.87;;;1.20;;
1350;SDS011;669;50.206;9.998;2024-03-23T15:02:38;1.60;;;1.50;;
1350;SDS011;669;50.206;9.998;2024-03-23T15:05:06;1.57;;;1.47;;
1350;SDS011;669;50.206;9.998;2024-03-23T15:07:35;1.70;;;1.10;;
1350;SDS011;669;50.206;9.998;2024-03-23T15:10:01;1.03;;;1.00;;
1350;SDS011;669;50.206;9.998;2024-03-23T15:12:30;2.30;;;2.10;;
1350;SDS011;669;50.206;9.998;2024-03-23T15:14:58;2.20;;;1.40;;
1350;SDS011;669;50.206;9.998;2024-03-23T15:17:25;1.23;;;1.03;;
1350;SDS011;669;50.206;9.998;2024-03-23T15:19:51;2.70;;;1.60;;
1350;SDS011;669;50.206;9.998;2024-03-23T15:22:20;1.13;;;1.13;;
1350;SDS011;669;50.206;9.998;2024-03-23T15:24:47;2.30;;;1.47;;
1350;SDS011;669;50.206;9.998;2024-03-23T15:27:15;1.50;;;1.40;;
1350;SDS011;669;50.206;9.998;2024-03-23T15:29:41;2.10;;;1.43;;
1350;SDS011;669;50.206;9.998;2024-03-23T15:32:11;1.80;;;1.53;;
1350;SDS011;669;50.206;9.998;2024-03-23T15:34:37;2.50;;;1.60;;
1350;SDS011;669;50.206;9.998;2024-03-23T15:37:04;1.80;;;1.30;;
1350;SDS011;669;50.206;9.998;2024-03-23T15:39:32;1.60;;;1.50;;
1350;SDS011;669;50.206;9.998;2024-03-23T15:41:59;1.17;;;1.07;;
1350;SDS011;669;50.206;9.998;2024-03-23T15:44:25;0.70;;;0.50;;
1350;SDS011;669;50.206;9.998;2024-03-23T15:46:52;0.70;;;0.57;;
1350;SDS011;669;50.206;9.998;2024-03-23T15:49:18;1.23;;;0.93;;
1350;SDS011;669;50.206;9.998;2024-03-23T15:51:45;1.27;;;0.70;;
1350;SDS011;669;50.206;9.998;2024-03-23T15:54:11;2.17;;;0.60;;
1350;SDS011;669;50.206;9.998;2024-03-23T15:56:39;0.67;;;0.67;;
1350;SDS011;669;50.206;9.998;2024-03-23T15:59:05;0.60;;;0.60;;
1350;SDS011;669;50.206;9.998;2024-03-23T16:01:32;0.60;;;0.60;;
1350;SDS011;669;50.206;9.998;2024-03-23T16:03:59;0.80;;;0.77;;
1350;SDS011;669;50.206;9.998;2024-03-23T16:06:26;1.10;;;1.00;;
1350;SDS011;669;50.206;9.998;2024-03-23T16:08:52;1.20;;;1.10;;
1350;SDS011;669;50.206;9.998;2024-03-23T16:11:19;0.87;;;0.87;;
1350;SDS011;669;50.206;9.998;2024-03-23T16:13:47;0.50;;;0.50;;
1350;SDS011;669;50.206;9.998;2024-03-23T16:16:14;1.10;;;1.00;;
1350;SDS011;669;50.206;9.998;2024-03-23T16:18:41;1.33;;;0.70;;
1350;SDS011;669;50.206;9.998;2024-03-23T16:21:09;0.80;;;0.80;;